createdAt,value
2023-02-24T00:00:32.495Z,11.82
2023-02-24T00:01:41.695Z,10.50
2023-02-24T00:02:45.411Z,10.55
2023-02-24T00:03:48.146Z,12.40
2023-02-24T00:04:51.693Z,10.88
2023-02-24T00:05:54.180Z,10.00
2023-02-24T00:06:56.753Z,12.18
2023-02-24T00:07:59.072Z,13.38
2023-02-24T00:09:02.066Z,13.75
2023-02-24T00:10:05.061Z,12.05
2023-02-24T00:11:17.207Z,11.57
2023-02-24T00:12:20.858Z,10.10
2023-02-24T00:13:23.173Z,10.85
2023-02-24T00:14:28.340Z,12.90
2023-02-24T00:15:30.844Z,9.77
2023-02-24T00:16:34.293Z,12.18
2023-02-24T00:17:38.532Z,11.43
2023-02-24T00:18:41.053Z,9.35
2023-02-24T00:19:43.826Z,10.95
2023-02-24T00:20:46.579Z,11.82
2023-02-24T00:21:49.684Z,13.93
2023-02-24T00:22:51.973Z,12.15
2023-02-24T00:23:54.669Z,10.85
2023-02-24T00:25:01.219Z,11.88
2023-02-24T00:26:05.475Z,12.95
2023-02-24T00:27:08.228Z,12.00
2023-02-24T00:28:14.137Z,10.48
2023-02-24T00:29:18.033Z,10.50
2023-02-24T00:30:21.366Z,11.90
2023-02-24T00:31:24.470Z,11.13
2023-02-24T00:32:27.807Z,11.00
2023-02-24T00:33:32.587Z,10.38
2023-02-24T00:34:37.529Z,11.98
2023-02-24T00:35:39.901Z,11.15
2023-02-24T00:36:42.259Z,12.50
2023-02-24T00:37:51.192Z,9.48
2023-02-24T00:38:58.392Z,12.35
2023-02-24T00:40:00.777Z,11.20
2023-02-24T00:41:19.438Z,11.15
2023-02-24T00:42:22.786Z,10.07
2023-02-24T00:43:25.132Z,12.77
2023-02-24T00:44:29.566Z,16.60
2023-02-24T00:45:33.831Z,9.48
2023-02-24T00:46:47.038Z,9.85
2023-02-24T00:47:50.045Z,11.15
2023-02-24T00:48:55.194Z,9.40
2023-02-24T00:49:57.558Z,9.75
2023-02-24T00:51:02.492Z,15.85
2023-02-24T00:52:04.846Z,11.48
2023-02-24T00:53:07.197Z,9.15
2023-02-24T00:54:14.806Z,11.52
2023-02-24T00:55:17.190Z,10.43
2023-02-24T00:56:20.541Z,9.60
2023-02-24T00:57:24.938Z,10.50
2023-02-24T00:58:29.810Z,10.85
2023-02-24T00:59:32.158Z,13.02
2023-02-24T01:00:36.830Z,11.88
2023-02-24T01:01:40.891Z,8.88
2023-02-24T01:02:47.537Z,10.23
2023-02-24T01:03:51.601Z,12.27
2023-02-24T01:04:54.920Z,11.55
2023-02-24T01:06:00.307Z,10.18
2023-02-24T01:07:03.571Z,7.22
2023-02-24T01:08:06.610Z,14.85
2023-02-24T01:09:12.334Z,9.75
2023-02-24T01:10:14.660Z,9.85
2023-02-24T01:11:37.878Z,26.15
2023-02-24T01:12:49.599Z,43.40
2023-02-24T01:13:52.096Z,44.03
2023-02-24T01:14:55.192Z,48.97
2023-02-24T01:16:03.298Z,45.85
2023-02-24T01:17:07.651Z,36.05
2023-02-24T01:18:10.964Z,35.50
2023-02-24T01:19:13.381Z,29.77
2023-02-24T01:20:20.436Z,26.15
2023-02-24T01:21:24.072Z,26.83
2023-02-24T01:22:27.657Z,21.17
2023-02-24T01:23:29.966Z,18.70
2023-02-24T01:24:36.444Z,16.75
2023-02-24T01:25:38.878Z,22.08
2023-02-24T01:26:42.339Z,16.20
2023-02-24T01:27:44.982Z,18.48
2023-02-24T01:28:48.076Z,14.90
2023-02-24T01:29:50.891Z,13.80
2023-02-24T01:30:54.796Z,18.42
2023-02-24T01:31:59.905Z,15.25
2023-02-24T01:33:02.529Z,14.40
2023-02-24T01:34:06.016Z,12.85
2023-02-24T01:35:09.260Z,12.55
2023-02-24T01:36:21.661Z,14.48
2023-02-24T01:37:24.631Z,12.57
2023-02-24T01:38:26.942Z,12.70
2023-02-24T01:39:29.626Z,12.27
2023-02-24T01:40:32.676Z,14.35
2023-02-24T01:41:35.495Z,13.95
2023-02-24T01:42:41.152Z,16.95
2023-02-24T01:44:09.211Z,11.85
2023-02-24T01:45:18.680Z,14.40
2023-02-24T01:46:23.472Z,10.25
2023-02-24T01:47:30.377Z,11.80
2023-02-24T01:48:32.738Z,12.90
2023-02-24T01:49:41.075Z,26.67
2023-02-24T01:50:45.555Z,15.90
2023-02-24T01:51:54.082Z,20.05
2023-02-24T01:53:02.173Z,38.55
2023-02-24T01:54:07.941Z,28.63
2023-02-24T01:55:20.200Z,35.72
2023-02-24T01:56:22.662Z,20.88
2023-02-24T01:57:29.374Z,21.25
2023-02-24T01:58:33.574Z,23.55
2023-02-24T01:59:37.048Z,16.58
2023-02-24T02:00:45.613Z,21.83
2023-02-24T02:01:48.623Z,17.13
2023-02-24T02:02:56.481Z,16.48
2023-02-24T02:04:05.638Z,16.98
2023-02-24T02:05:09.985Z,18.67
2023-02-24T02:06:17.609Z,14.32
2023-02-24T02:07:22.068Z,12.65
2023-02-24T02:08:24.724Z,17.70
2023-02-24T02:09:29.766Z,16.80
2023-02-24T02:10:34.847Z,18.35
2023-02-24T02:11:39.019Z,16.17
2023-02-24T02:12:44.513Z,16.25
2023-02-24T02:13:50.606Z,16.33
2023-02-24T02:14:55.940Z,14.10
2023-02-24T02:16:32.752Z,18.25
2023-02-24T02:18:06.034Z,17.20
2023-02-24T02:19:45.642Z,18.35
2023-02-24T02:21:06.138Z,18.63
2023-02-24T02:22:59.330Z,16.67
2023-02-24T02:24:31.243Z,16.25
2023-02-24T02:26:58.190Z,14.65
2023-02-24T02:28:25.779Z,15.82
2023-02-24T02:29:58.743Z,23.02
2023-02-24T02:31:18.031Z,219.88
2023-02-24T02:32:52.276Z,106.10
2023-02-24T02:34:11.869Z,66.80
2023-02-24T02:35:22.520Z,89.93
2023-02-24T02:36:35.807Z,66.55
2023-02-24T02:38:03.422Z,64.30
2023-02-24T02:39:31.399Z,48.72
2023-02-24T02:40:41.046Z,39.47
2023-02-24T02:41:50.420Z,36.83
2023-02-24T02:43:18.389Z,31.30
2023-02-24T02:44:47.576Z,30.13
2023-02-24T02:46:03.622Z,23.70
2023-02-24T02:47:23.126Z,22.30
2023-02-24T02:48:56.410Z,18.27
2023-02-24T02:50:38.590Z,25.42
2023-02-24T02:51:47.144Z,17.05
2023-02-24T02:52:57.637Z,19.20
2023-02-24T02:54:21.318Z,21.05
2023-02-24T02:55:46.004Z,21.48
2023-02-24T02:57:09.536Z,18.02
2023-02-24T02:58:16.755Z,18.58
2023-02-24T02:59:26.591Z,17.63
2023-02-24T03:00:37.006Z,17.15
2023-02-24T03:01:43.672Z,24.20
2023-02-24T03:02:51.154Z,18.58
2023-02-24T03:03:56.361Z,20.63
2023-02-24T03:05:02.136Z,19.65
2023-02-24T03:06:09.559Z,18.48
2023-02-24T03:07:14.682Z,18.02
2023-02-24T03:08:22.998Z,17.00
2023-02-24T03:09:30.561Z,18.45
2023-02-24T03:10:34.379Z,18.92
2023-02-24T03:11:38.129Z,17.33
2023-02-24T03:12:41.743Z,16.60
2023-02-24T03:13:49.461Z,19.13
2023-02-24T03:14:59.013Z,19.50
2023-02-24T03:16:03.333Z,15.57
2023-02-24T03:17:12.638Z,23.58
2023-02-24T03:18:28.969Z,20.43
2023-02-24T03:19:39.344Z,40.25
2023-02-24T03:20:48.506Z,45.55
2023-02-24T03:22:07.146Z,30.02
2023-02-24T03:23:19.160Z,24.90
2023-02-24T03:24:22.306Z,25.15
2023-02-24T03:26:00.430Z,23.08
2023-02-24T03:27:20.626Z,22.98
2023-02-24T03:28:34.036Z,21.50
2023-02-24T03:29:48.542Z,18.52
2023-02-24T03:31:07.070Z,19.95
2023-02-24T03:32:16.356Z,19.83
2023-02-24T03:33:24.984Z,22.95
2023-02-24T03:35:04.353Z,22.42
2023-02-24T03:36:07.962Z,23.05
2023-02-24T03:37:11.100Z,25.02
2023-02-24T03:38:14.218Z,18.95
2023-02-24T03:39:17.100Z,20.55
2023-02-24T03:40:43.452Z,19.70
2023-02-24T03:42:03.820Z,21.08
2023-02-24T03:43:16.852Z,23.92
2023-02-24T03:44:20.590Z,20.07
2023-02-24T03:45:23.982Z,21.08
2023-02-24T03:46:26.596Z,21.42
2023-02-24T03:47:30.202Z,18.90
2023-02-24T03:48:37.993Z,17.27
2023-02-24T03:49:43.730Z,20.85
2023-02-24T03:50:49.465Z,23.85
2023-02-24T03:52:14.116Z,22.23
2023-02-24T03:53:39.566Z,21.67
2023-02-24T03:54:59.254Z,36.05
2023-02-24T03:56:10.822Z,57.42
2023-02-24T03:57:54.745Z,43.28
2023-02-24T03:59:34.435Z,45.08
2023-02-24T04:00:38.383Z,40.70
2023-02-24T04:01:58.019Z,40.20
2023-02-24T04:03:43.222Z,34.00
2023-02-24T04:05:27.487Z,34.42
2023-02-24T04:06:58.092Z,26.13
2023-02-24T04:08:07.317Z,25.52
2023-02-24T04:09:33.307Z,24.45
2023-02-24T04:11:05.548Z,25.95
2023-02-24T04:12:09.293Z,24.35
2023-02-24T04:13:43.445Z,19.52
2023-02-24T04:15:37.715Z,19.27
2023-02-24T04:16:52.788Z,18.23
2023-02-24T04:18:01.185Z,19.45
2023-02-24T04:19:14.012Z,18.48
2023-02-24T04:20:20.816Z,17.50
2023-02-24T04:21:32.154Z,14.75
2023-02-24T04:22:36.216Z,13.95
2023-02-24T04:23:43.335Z,16.70
2023-02-24T04:24:50.076Z,16.27
2023-02-24T04:25:56.246Z,14.82
2023-02-24T04:27:01.178Z,15.90
2023-02-24T04:28:08.087Z,16.20
2023-02-24T04:29:20.513Z,13.55
2023-02-24T04:30:29.928Z,14.60
2023-02-24T04:31:33.997Z,15.10
2023-02-24T04:32:37.302Z,20.25
2023-02-24T04:33:39.954Z,17.90
2023-02-24T04:34:43.624Z,203.00
2023-02-24T04:35:48.239Z,104.82
2023-02-24T04:36:50.744Z,114.00
2023-02-24T04:37:55.540Z,90.03
2023-02-24T04:38:58.676Z,83.03
2023-02-24T04:40:10.602Z,61.83
2023-02-24T04:41:21.457Z,45.85
2023-02-24T04:42:24.066Z,39.17
2023-02-24T04:43:26.434Z,37.33
2023-02-24T04:44:29.113Z,32.63
2023-02-24T04:45:32.519Z,41.25
2023-02-24T04:46:35.112Z,38.72
2023-02-24T04:47:37.653Z,35.95
2023-02-24T04:48:39.981Z,31.42
2023-02-24T04:49:42.695Z,31.77
2023-02-24T04:50:45.389Z,33.13
2023-02-24T04:51:47.805Z,31.48
2023-02-24T04:53:01.877Z,32.35
2023-02-24T04:54:04.309Z,30.10
2023-02-24T04:55:10.200Z,33.20
2023-02-24T04:56:12.537Z,30.00
2023-02-24T04:57:14.965Z,31.02
2023-02-24T04:58:20.239Z,30.85
2023-02-24T04:59:24.728Z,30.45
2023-02-24T05:00:33.291Z,31.15
2023-02-24T05:01:36.374Z,28.90
2023-02-24T05:02:39.021Z,34.28
2023-02-24T05:03:44.411Z,30.35
2023-02-24T05:04:49.624Z,32.20
2023-02-24T05:05:59.906Z,28.08
2023-02-24T05:07:03.066Z,26.35
2023-02-24T05:08:09.709Z,26.52
2023-02-24T05:09:14.284Z,32.78
2023-02-24T05:10:18.485Z,29.10
2023-02-24T05:11:21.285Z,35.08
2023-02-24T05:12:23.845Z,35.35
2023-02-24T05:13:28.885Z,29.55
2023-02-24T05:14:31.190Z,29.00
2023-02-24T05:15:33.936Z,29.17
2023-02-24T05:16:37.696Z,30.08
2023-02-24T05:17:41.034Z,31.20
2023-02-24T05:18:44.862Z,32.63
2023-02-24T05:20:06.050Z,30.95
2023-02-24T05:21:33.168Z,28.27
2023-02-24T05:22:35.544Z,30.15
2023-02-24T05:23:46.737Z,37.17
2023-02-24T05:25:54.889Z,23.85
2023-02-24T05:26:59.161Z,25.27
2023-02-24T05:28:04.028Z,25.08
2023-02-24T05:29:07.579Z,26.35
2023-02-24T05:30:11.437Z,24.80
2023-02-24T05:31:16.970Z,29.88
2023-02-24T05:32:19.431Z,34.30
2023-02-24T05:33:22.577Z,23.35
2023-02-24T05:34:26.476Z,34.63
2023-02-24T05:35:29.715Z,45.33
2023-02-24T05:36:35.913Z,36.83
2023-02-24T05:37:41.939Z,36.63
2023-02-24T05:38:45.965Z,38.58
2023-02-24T05:39:48.365Z,37.88
2023-02-24T05:40:50.696Z,35.92
2023-02-24T05:41:54.737Z,30.58
2023-02-24T05:42:58.163Z,27.20
2023-02-24T05:44:04.884Z,27.33
2023-02-24T05:45:10.949Z,30.40
2023-02-24T05:46:14.005Z,26.75
2023-02-24T05:47:19.599Z,35.42
2023-02-24T05:48:22.259Z,30.27
2023-02-24T05:49:34.032Z,30.92
2023-02-24T05:50:36.541Z,26.27
2023-02-24T05:51:43.285Z,28.27
2023-02-24T05:52:46.324Z,26.27
2023-02-24T05:53:48.807Z,28.98
2023-02-24T05:54:53.049Z,31.73
2023-02-24T05:56:00.680Z,25.58
2023-02-24T05:57:07.361Z,31.90
2023-02-24T05:58:09.682Z,34.45
2023-02-24T05:59:18.040Z,29.60
2023-02-24T06:00:25.798Z,41.85
2023-02-24T06:01:33.265Z,33.35
2023-02-24T06:02:37.705Z,30.50
2023-02-24T06:03:41.394Z,29.13
2023-02-24T06:04:50.735Z,29.23
2023-02-24T06:05:53.837Z,28.13
2023-02-24T06:06:56.512Z,26.48
2023-02-24T06:08:05.798Z,27.70
2023-02-24T06:09:12.609Z,28.70
2023-02-24T06:10:15.262Z,26.58
2023-02-24T06:11:21.348Z,27.20
2023-02-24T06:12:34.467Z,29.02
2023-02-24T06:13:39.589Z,25.70
2023-02-24T06:14:42.505Z,27.13
2023-02-24T06:15:50.360Z,27.00
2023-02-24T06:16:53.091Z,26.90
2023-02-24T06:18:00.885Z,27.00
2023-02-24T06:19:05.432Z,23.10
2023-02-24T06:20:13.883Z,23.30
2023-02-24T06:21:16.420Z,26.02
2023-02-24T06:22:22.562Z,28.90
2023-02-24T06:23:26.689Z,22.80
2023-02-24T06:24:31.173Z,25.30
2023-02-24T06:25:33.717Z,26.75
2023-02-24T06:26:36.796Z,25.23
2023-02-24T06:27:39.399Z,24.25
2023-02-24T06:28:44.857Z,22.20
2023-02-24T06:29:52.481Z,25.55
2023-02-24T06:30:56.156Z,32.67
2023-02-24T06:31:58.775Z,38.67
2023-02-24T06:33:01.275Z,49.75
2023-02-24T06:34:03.759Z,44.17
2023-02-24T06:35:06.321Z,37.17
2023-02-24T06:36:08.969Z,39.33
2023-02-24T06:37:14.213Z,47.45
2023-02-24T06:38:17.418Z,40.63
2023-02-24T06:39:19.836Z,31.95
2023-02-24T06:40:22.334Z,26.08
2023-02-24T06:41:29.369Z,26.80
2023-02-24T06:42:31.713Z,27.08
2023-02-24T06:43:34.096Z,26.50
2023-02-24T06:44:38.638Z,28.65
2023-02-24T06:45:41.269Z,26.38
2023-02-24T06:46:43.747Z,30.17
2023-02-24T06:47:48.730Z,29.52
2023-02-24T06:48:51.849Z,26.77
2023-02-24T06:49:54.269Z,27.67
2023-02-24T06:50:57.364Z,24.55
2023-02-24T06:52:00.240Z,24.70
2023-02-24T06:53:02.674Z,26.90
2023-02-24T06:54:06.180Z,28.33
2023-02-24T06:55:28.313Z,29.10
2023-02-24T06:56:32.447Z,23.10
2023-02-24T06:57:34.870Z,26.92
2023-02-24T06:58:39.067Z,24.92
2023-02-24T06:59:42.360Z,24.80
2023-02-24T07:00:56.585Z,25.00
2023-02-24T07:02:01.716Z,25.02
2023-02-24T07:03:15.065Z,22.70
2023-02-24T07:04:18.104Z,24.92
2023-02-24T07:05:24.105Z,20.08
2023-02-24T07:06:29.357Z,23.23
2023-02-24T07:07:31.791Z,20.83
2023-02-24T07:08:34.098Z,24.15
2023-02-24T07:09:36.630Z,23.95
2023-02-24T07:10:39.058Z,19.30
2023-02-24T07:11:46.407Z,18.83
2023-02-24T07:12:51.023Z,19.08
2023-02-24T07:13:54.472Z,21.90
2023-02-24T07:14:57.423Z,23.80
2023-02-24T07:16:06.739Z,21.13
2023-02-24T07:17:09.147Z,25.75
2023-02-24T07:18:14.856Z,22.63
2023-02-24T07:19:17.264Z,21.17
2023-02-24T07:20:25.367Z,22.40
2023-02-24T07:21:30.168Z,21.13
2023-02-24T07:22:32.520Z,17.80
2023-02-24T07:23:34.900Z,21.40
2023-02-24T07:24:39.127Z,25.33
2023-02-24T07:25:43.326Z,22.85
2023-02-24T07:26:51.581Z,21.38
2023-02-24T07:27:53.949Z,20.58
2023-02-24T07:28:56.620Z,22.42
2023-02-24T07:29:59.355Z,18.25
2023-02-24T07:31:08.365Z,20.38
2023-02-24T07:32:11.189Z,18.35
2023-02-24T07:33:14.309Z,21.75
2023-02-24T07:34:23.390Z,19.38
2023-02-24T07:35:26.464Z,20.60
2023-02-24T07:36:38.807Z,17.90
2023-02-24T07:37:41.586Z,24.42
2023-02-24T07:38:45.504Z,20.42
2023-02-24T07:39:47.812Z,19.95
2023-02-24T07:40:50.340Z,18.90
2023-02-24T07:41:57.155Z,18.92
2023-02-24T07:43:01.300Z,17.77
2023-02-24T07:44:03.897Z,17.48
2023-02-24T07:45:08.253Z,18.50
2023-02-24T07:46:19.697Z,23.27
2023-02-24T07:47:22.805Z,31.02
2023-02-24T07:48:25.743Z,26.67
2023-02-24T07:49:30.107Z,27.00
2023-02-24T07:50:33.491Z,26.23
2023-02-24T07:51:36.292Z,25.13
2023-02-24T07:52:39.072Z,30.75
2023-02-24T07:53:41.966Z,22.70
2023-02-24T07:54:44.322Z,26.65
2023-02-24T07:55:46.801Z,18.20
2023-02-24T07:56:59.658Z,22.48
2023-02-24T07:58:05.720Z,20.33
2023-02-24T07:59:11.211Z,24.17
2023-02-24T08:00:19.425Z,30.55
2023-02-24T08:01:24.718Z,22.25
2023-02-24T08:02:27.468Z,25.73
2023-02-24T08:03:30.239Z,24.58
2023-02-24T08:04:33.515Z,19.48
2023-02-24T08:05:36.339Z,26.48
2023-02-24T08:06:46.110Z,22.85
2023-02-24T08:07:49.751Z,23.98
2023-02-24T08:08:58.828Z,20.27
2023-02-24T08:10:13.778Z,25.00
2023-02-24T08:11:16.182Z,25.85
2023-02-24T08:12:22.120Z,25.02
2023-02-24T08:13:24.797Z,21.00
2023-02-24T08:14:35.396Z,28.65
2023-02-24T08:15:37.869Z,32.00
2023-02-24T08:16:48.901Z,30.33
2023-02-24T08:17:53.121Z,30.00
2023-02-24T08:18:57.806Z,31.67
2023-02-24T08:20:13.297Z,22.95
2023-02-24T08:21:19.531Z,25.08
2023-02-24T08:22:24.935Z,31.85
2023-02-24T08:23:27.607Z,25.83
2023-02-24T08:24:30.027Z,30.58
2023-02-24T08:25:35.933Z,20.55
2023-02-24T08:26:44.776Z,21.77
2023-02-24T08:28:07.259Z,24.35
2023-02-24T08:29:11.592Z,24.23
2023-02-24T08:30:29.870Z,23.52
2023-02-24T08:31:32.788Z,24.58
2023-02-24T08:32:43.946Z,26.45
2023-02-24T08:33:46.361Z,22.40
2023-02-24T08:34:49.475Z,19.90
2023-02-24T08:36:00.785Z,21.15
2023-02-24T08:38:10.276Z,19.75
2023-02-24T08:39:14.613Z,18.27
2023-02-24T08:40:33.390Z,21.95
2023-02-24T08:41:45.376Z,22.27
2023-02-24T08:42:49.968Z,27.58
2023-02-24T08:43:52.299Z,27.15
2023-02-24T08:44:54.599Z,25.45
2023-02-24T08:46:25.602Z,23.83
2023-02-24T08:47:31.177Z,20.05
2023-02-24T08:48:37.354Z,27.65
2023-02-24T08:49:40.438Z,26.67
2023-02-24T08:50:45.509Z,27.63
2023-02-24T08:51:49.022Z,25.48
2023-02-24T08:52:51.304Z,26.27
2023-02-24T08:53:56.561Z,22.17
2023-02-24T08:55:01.670Z,29.48
2023-02-24T08:56:09.421Z,26.52
2023-02-24T08:57:15.251Z,23.17
2023-02-24T08:58:19.010Z,23.77
2023-02-24T08:59:43.154Z,25.50
2023-02-24T09:00:49.158Z,26.17
2023-02-24T09:02:04.383Z,26.92
2023-02-24T09:03:08.435Z,22.85
2023-02-24T09:04:13.664Z,25.13
2023-02-24T09:05:16.834Z,25.27
2023-02-24T09:06:25.390Z,27.17
2023-02-24T09:07:35.244Z,23.25
2023-02-24T09:08:39.718Z,27.80
2023-02-24T09:09:42.603Z,23.65
2023-02-24T09:10:46.208Z,26.33
2023-02-24T09:11:50.669Z,436.17
2023-02-24T09:12:53.555Z,158.45
2023-02-24T09:13:58.134Z,117.40
2023-02-24T09:15:04.755Z,136.98
2023-02-24T09:16:16.581Z,182.65
2023-02-24T09:17:20.598Z,182.35
2023-02-24T09:18:30.169Z,174.82
2023-02-24T09:19:51.523Z,176.43
2023-02-24T09:20:56.888Z,154.55
2023-02-24T09:22:21.122Z,171.50
2023-02-24T09:23:29.858Z,140.27
2023-02-24T09:24:32.731Z,119.07
2023-02-24T09:25:41.312Z,81.88
2023-02-24T09:26:43.884Z,165.10
2023-02-24T09:28:07.811Z,134.40
2023-02-24T09:29:33.549Z,156.80
2023-02-24T09:30:53.162Z,152.32
2023-02-24T09:32:04.441Z,141.82
2023-02-24T09:33:20.870Z,104.05
2023-02-24T09:34:30.024Z,89.68
2023-02-24T09:35:36.603Z,81.47
2023-02-24T09:37:01.452Z,93.05
2023-02-24T09:38:08.013Z,78.13
2023-02-24T09:39:11.048Z,72.32
2023-02-24T09:40:16.496Z,71.05
2023-02-24T09:41:56.520Z,77.32
2023-02-24T09:42:59.050Z,65.68
2023-02-24T09:44:03.794Z,66.35
2023-02-24T09:45:12.845Z,65.00
2023-02-24T09:46:15.439Z,61.97
2023-02-24T09:47:42.189Z,60.80
2023-02-24T09:48:55.131Z,71.57
2023-02-24T09:50:04.280Z,60.95
2023-02-24T09:51:10.444Z,82.05
2023-02-24T09:52:17.108Z,59.90
2023-02-24T09:53:19.843Z,72.40
2023-02-24T09:54:25.136Z,56.88
2023-02-24T09:56:05.089Z,82.78
2023-02-24T09:57:16.923Z,66.28
2023-02-24T09:58:43.942Z,95.20
2023-02-24T10:00:23.374Z,88.50
2023-02-24T10:01:52.644Z,94.43
2023-02-24T10:03:48.140Z,63.95
2023-02-24T10:05:49.552Z,52.63
2023-02-24T10:07:12.519Z,48.50
2023-02-24T10:08:26.004Z,43.88
2023-02-24T10:09:39.093Z,40.20
2023-02-24T10:11:00.686Z,37.45
2023-02-24T10:12:21.567Z,45.35
2023-02-24T10:13:32.470Z,46.50
2023-02-24T10:15:16.586Z,44.47
2023-02-24T10:16:26.344Z,46.65
2023-02-24T10:17:40.074Z,50.58
2023-02-24T10:19:18.702Z,54.53
2023-02-24T10:20:44.813Z,52.67
2023-02-24T10:22:02.746Z,47.00
2023-02-24T10:23:14.010Z,58.05
2023-02-24T10:25:01.407Z,49.17
2023-02-24T10:26:30.321Z,44.00
2023-02-24T10:27:42.118Z,40.75
2023-02-24T10:28:53.269Z,44.60
2023-02-24T10:30:05.719Z,45.10
2023-02-24T10:31:26.305Z,49.28
2023-02-24T10:32:52.050Z,42.17
2023-02-24T10:34:08.645Z,36.33
2023-02-24T10:35:18.280Z,35.35
2023-02-24T10:36:30.542Z,39.75
2023-02-24T10:37:34.165Z,42.55
2023-02-24T10:38:45.630Z,46.10
2023-02-24T10:39:51.917Z,47.20
2023-02-24T10:40:58.133Z,41.25
2023-02-24T10:42:17.449Z,46.00
2023-02-24T10:43:29.847Z,44.38
2023-02-24T10:44:36.087Z,38.85
2023-02-24T10:45:45.212Z,41.75
2023-02-24T10:46:48.273Z,37.75
2023-02-24T10:47:57.424Z,45.38
2023-02-24T10:49:02.576Z,40.03
2023-02-24T10:50:12.644Z,36.92
2023-02-24T10:51:22.919Z,34.67
2023-02-24T10:52:50.375Z,41.15
2023-02-24T10:54:21.745Z,31.65
2023-02-24T10:55:43.443Z,45.78
2023-02-24T10:58:16.005Z,41.28
2023-02-24T10:59:22.600Z,38.13
2023-02-24T11:00:51.125Z,40.33
2023-02-24T11:01:59.106Z,34.17
2023-02-24T11:03:10.426Z,32.42
2023-02-24T11:06:04.633Z,33.83
2023-02-24T11:07:24.693Z,36.85
2023-02-24T11:08:44.255Z,32.97
2023-02-24T11:09:52.867Z,36.85
2023-02-24T11:11:06.853Z,35.67
2023-02-24T11:12:38.432Z,36.65
2023-02-24T11:14:07.866Z,30.48
2023-02-24T11:15:38.967Z,31.80
2023-02-24T11:17:14.601Z,37.65
2023-02-24T11:18:20.198Z,45.22
2023-02-24T11:19:23.052Z,31.38
2023-02-24T11:20:47.769Z,35.03
2023-02-24T11:21:50.704Z,24.15
2023-02-24T11:22:55.868Z,25.92
2023-02-24T11:24:02.739Z,29.35
2023-02-24T11:25:13.813Z,46.38
2023-02-24T11:26:23.415Z,43.42
2023-02-24T11:27:28.007Z,43.28
2023-02-24T11:28:39.347Z,46.10
2023-02-24T11:29:58.852Z,36.17
2023-02-24T11:31:04.039Z,26.80
2023-02-24T11:32:48.011Z,36.92
2023-02-24T11:34:07.578Z,27.88
2023-02-24T11:35:23.938Z,34.22
2023-02-24T11:37:09.107Z,32.88
2023-02-24T11:38:31.841Z,36.42
2023-02-24T11:39:55.538Z,44.80
2023-02-24T11:41:23.891Z,32.85
2023-02-24T11:42:51.944Z,33.30
2023-02-24T11:44:04.588Z,29.20
2023-02-24T11:45:12.630Z,39.60
2023-02-24T11:46:20.893Z,37.33
2023-02-24T11:47:33.568Z,42.28
2023-02-24T11:48:52.208Z,43.53
2023-02-24T11:50:05.239Z,38.53
2023-02-24T11:51:16.258Z,39.42
2023-02-24T11:52:30.252Z,30.95
2023-02-24T11:53:35.642Z,34.22
2023-02-24T11:54:44.259Z,33.78
2023-02-24T11:55:54.105Z,38.58
2023-02-24T11:57:00.535Z,38.83
2023-02-24T11:58:10.421Z,37.17
2023-02-24T11:59:43.642Z,41.40
2023-02-24T12:00:59.580Z,38.60
2023-02-24T12:02:14.273Z,38.13
2023-02-24T12:03:37.250Z,33.97
2023-02-24T12:04:59.749Z,37.88
2023-02-24T12:06:23.332Z,34.63
2023-02-24T12:07:31.234Z,35.35
2023-02-24T12:08:38.007Z,34.45
2023-02-24T12:09:56.311Z,42.05
2023-02-24T12:11:11.454Z,35.28
2023-02-24T12:12:19.330Z,44.53
2023-02-24T12:13:28.732Z,40.45
2023-02-24T12:14:42.720Z,41.72
2023-02-24T12:16:03.110Z,37.35
2023-02-24T12:17:40.945Z,33.70
2023-02-24T12:18:50.466Z,31.70
2023-02-24T12:20:05.047Z,35.85
2023-02-24T12:21:30.649Z,35.97
2023-02-24T12:22:47.257Z,41.53
2023-02-24T12:23:55.046Z,39.65
2023-02-24T12:24:57.783Z,39.55
2023-02-24T12:26:19.919Z,45.63
2023-02-24T12:27:42.319Z,40.75
2023-02-24T12:29:00.361Z,32.47
2023-02-24T12:30:34.076Z,34.45
2023-02-24T12:32:04.548Z,34.65
2023-02-24T12:33:34.070Z,43.80
2023-02-24T12:34:47.396Z,54.10
2023-02-24T12:36:04.179Z,42.35
2023-02-24T12:37:25.191Z,62.17
2023-02-24T12:39:09.640Z,44.97
2023-02-24T12:40:18.890Z,43.00
2023-02-24T12:42:00.172Z,42.97
2023-02-24T12:43:14.048Z,43.47
2023-02-24T12:44:35.602Z,36.72
2023-02-24T12:46:22.408Z,34.03
2023-02-24T12:47:36.201Z,37.22
2023-02-24T12:49:24.977Z,34.20
2023-02-24T12:50:51.607Z,35.40
2023-02-24T12:52:09.961Z,28.27
2023-02-24T12:53:30.691Z,35.63
2023-02-24T12:54:51.427Z,32.80
2023-02-24T12:56:06.584Z,43.08
2023-02-24T12:57:13.978Z,35.15
2023-02-24T12:58:19.442Z,30.45
2023-02-24T12:59:28.747Z,35.25
2023-02-24T13:00:45.343Z,31.40
2023-02-24T13:02:20.195Z,41.35
2023-02-24T13:03:22.583Z,36.63
2023-02-24T13:04:39.732Z,35.13
2023-02-24T13:06:09.736Z,37.25
2023-02-24T13:07:36.557Z,38.60
2023-02-24T13:09:19.725Z,39.42
2023-02-24T13:10:50.836Z,34.50
2023-02-24T13:12:20.278Z,34.58
2023-02-24T13:13:37.044Z,29.92
2023-02-24T13:14:41.933Z,31.15
2023-02-24T13:15:56.378Z,35.88
2023-02-24T13:17:11.686Z,36.58
2023-02-24T13:18:24.100Z,39.25
2023-02-24T13:19:26.451Z,35.90
2023-02-24T13:20:36.346Z,32.63
2023-02-24T13:21:39.891Z,32.38
2023-02-24T13:22:43.554Z,37.67
2023-02-24T13:23:58.877Z,37.10
2023-02-24T13:25:17.125Z,37.17
2023-02-24T13:26:23.811Z,27.63
2023-02-24T13:27:29.276Z,35.13
2023-02-24T13:28:38.343Z,38.33
2023-02-24T13:29:57.531Z,37.90
2023-02-24T13:31:09.713Z,63.33
2023-02-24T13:32:35.957Z,52.35
2023-02-24T13:33:43.500Z,44.42
2023-02-24T13:34:46.074Z,40.35
2023-02-24T13:36:05.315Z,39.53
2023-02-24T13:37:09.663Z,32.95
2023-02-24T13:38:35.869Z,37.78
2023-02-24T13:39:44.265Z,28.85
2023-02-24T13:40:46.918Z,30.58
2023-02-24T13:41:49.342Z,33.25
2023-02-24T13:42:59.319Z,33.60
2023-02-24T13:44:21.177Z,25.85
2023-02-24T13:45:25.581Z,31.10
2023-02-24T13:46:53.261Z,31.10
2023-02-24T13:48:13.686Z,34.55
2023-02-24T13:49:36.538Z,30.23
2023-02-24T13:51:05.551Z,29.30
2023-02-24T13:52:34.486Z,36.15
2023-02-24T13:53:58.819Z,34.30
2023-02-24T13:55:29.273Z,27.20
2023-02-24T13:56:31.862Z,25.70
2023-02-24T13:57:42.994Z,32.03
2023-02-24T13:59:01.503Z,34.83
2023-02-24T14:00:21.746Z,27.25
2023-02-24T14:01:28.896Z,39.67
2023-02-24T14:02:36.219Z,33.90
2023-02-24T14:03:41.330Z,30.73
2023-02-24T14:04:52.870Z,36.22
2023-02-24T14:05:59.288Z,32.92
2023-02-24T14:07:04.942Z,33.35
2023-02-24T14:08:07.679Z,35.22
2023-02-24T14:09:17.383Z,33.10
2023-02-24T14:10:28.244Z,41.03
2023-02-24T14:11:34.893Z,34.53
2023-02-24T14:12:37.673Z,45.13
2023-02-24T14:13:40.836Z,34.35
2023-02-24T14:14:44.370Z,31.45
2023-02-24T14:15:48.318Z,37.75
2023-02-24T14:16:51.545Z,35.17
2023-02-24T14:18:05.540Z,32.83
2023-02-24T14:19:16.107Z,28.38
2023-02-24T14:20:19.984Z,28.88
2023-02-24T14:21:25.593Z,31.55
2023-02-24T14:22:27.992Z,30.98
2023-02-24T14:23:33.501Z,27.77
2023-02-24T14:24:36.064Z,35.30
2023-02-24T14:25:39.347Z,32.95
2023-02-24T14:26:45.066Z,24.65
2023-02-24T14:27:50.528Z,28.83
2023-02-24T14:28:57.197Z,25.90
2023-02-24T14:30:00.306Z,28.55
2023-02-24T14:31:11.495Z,27.00
2023-02-24T14:32:21.331Z,29.42
2023-02-24T14:33:33.301Z,25.83
2023-02-24T14:34:35.979Z,27.73
2023-02-24T14:35:47.119Z,22.77
2023-02-24T14:36:52.907Z,39.88
2023-02-24T14:37:55.549Z,31.73
2023-02-24T14:39:02.387Z,28.42
2023-02-24T14:40:14.193Z,24.20
2023-02-24T14:41:24.403Z,29.20
2023-02-24T14:42:28.161Z,36.20
2023-02-24T14:43:30.801Z,38.90
2023-02-24T14:44:34.219Z,32.67
2023-02-24T14:45:47.113Z,36.45
2023-02-24T14:46:59.033Z,31.00
2023-02-24T14:48:01.434Z,28.92
2023-02-24T14:49:03.776Z,33.22
2023-02-24T14:50:06.844Z,28.20
2023-02-24T14:51:35.566Z,29.23
2023-02-24T14:53:12.570Z,27.15
2023-02-24T14:54:20.083Z,28.65
2023-02-24T14:55:29.570Z,28.25
2023-02-24T14:56:34.330Z,35.63
2023-02-24T14:57:45.095Z,23.30
2023-02-24T14:58:57.222Z,30.80
2023-02-24T15:00:10.916Z,30.17
2023-02-24T15:01:37.490Z,26.25
2023-02-24T15:02:47.729Z,27.70
2023-02-24T15:03:57.407Z,27.40
2023-02-24T15:05:00.374Z,26.40
2023-02-24T15:06:11.768Z,27.35
2023-02-24T15:08:35.076Z,26.38
2023-02-24T15:09:42.296Z,28.38
2023-02-24T15:10:46.622Z,27.55
2023-02-24T15:11:50.698Z,31.20
2023-02-24T15:13:09.755Z,24.33
2023-02-24T15:14:30.085Z,25.80